Time;durP1;ratioP1;P1;durP2;ratioP2;P2;SDS_P1;SDS_P2;PMS_P1;PMS_P2;Temp;Humidity;BMP_temperature;BMP_pressure;BME280_temperature;BME280_humidity;BME280_pressure;Samples;Min_cycle;Max_cycle;Signal;HPM_P1;HPM_P2
2022/08/02 00:02:03;;;;;;;9.20;6.50;;;22.20;99.90;;;;;;5095598;27;20215;-79
2022/08/02 00:04:53;;;;;;;11.23;6.78;;;22.10;99.90;;;;;;5096746;27;20223;-78
2022/08/02 00:07:42;;;;;;;9.77;6.35;;;22.20;99.90;;;;;;5096463;27;20218;-79
2022/08/02 00:10:31;;;;;;;8.20;6.00;;;22.10;99.90;;;;;;5098665;27;20238;-78
2022/08/02 00:13:19;;;;;;;9.60;6.25;;;22.10;99.90;;;;;;5099623;27;20308;-79
2022/08/02 00:16:08;;;;;;;8.23;5.95;;;22.00;99.90;;;;;;5098628;27;20790;-78
2022/08/02 00:19:04;;;;;;;9.32;6.63;;;22.00;99.90;;;;;;5095811;27;20227;-77
2022/08/02 00:21:54;;;;;;;9.30;6.22;;;22.00;99.90;;;;;;5106331;27;20326;-77
2022/08/02 00:24:46;;;;;;;9.77;6.10;;;22.00;99.90;;;;;;5114387;27;20231;-78
2022/08/02 00:27:35;;;;;;;8.77;6.40;;;22.00;99.90;;;;;;5093182;27;20230;-77
2022/08/02 00:30:24;;;;;;;12.75;6.40;;;21.90;99.90;;;;;;5098768;27;20241;-77
2022/08/02 00:33:13;;;;;;;7.18;6.28;;;21.90;99.90;;;;;;5095436;27;20214;-76
2022/08/02 00:36:02;;;;;;;7.55;5.88;;;21.90;99.90;;;;;;5095135;27;20315;-77
2022/08/02 00:38:52;;;;;;;11.32;6.00;;;22.00;99.90;;;;;;5093451;27;20224;-78
2022/08/02 00:41:47;;;;;;;9.93;5.57;;;21.90;99.90;;;;;;5098777;27;20219;-80
2022/08/02 00:44:36;;;;;;;8.20;5.60;;;21.80;99.90;;;;;;5098984;27;20222;-79
2022/08/02 00:47:24;;;;;;;8.60;5.85;;;21.70;99.90;;;;;;5100990;27;20716;-77
2022/08/02 00:50:13;;;;;;;6.45;5.25;;;21.80;99.90;;;;;;5097821;27;20222;-79
2022/08/02 00:53:02;;;;;;;8.85;5.95;;;21.80;99.90;;;;;;5103020;27;20218;-79
2022/08/02 00:55:51;;;;;;;7.82;5.80;;;21.80;99.90;;;;;;5099814;27;20368;-79
2022/08/02 00:58:40;;;;;;;7.90;4.97;;;21.90;99.90;;;;;;5097025;27;20218;-79
2022/08/02 01:01:38;;;;;;;6.00;5.15;;;21.90;99.90;;;;;;5122345;27;20231;-78
2022/08/02 01:04:45;;;;;;;6.57;5.28;;;21.90;99.90;;;;;;5095664;28;20234;-79
2022/08/02 01:07:34;;;;;;;9.77;5.88;;;21.90;99.90;;;;;;5096289;27;20211;-79
2022/08/02 01:10:23;;;;;;;7.93;5.38;;;21.80;99.90;;;;;;5093745;27;20223;-79
2022/08/02 01:13:13;;;;;;;7.47;5.13;;;21.80;99.90;;;;;;5095579;27;20582;-80
2022/08/02 01:16:08;;;;;;;7.50;5.15;;;21.80;99.90;;;;;;5100626;27;20345;-80
2022/08/02 01:19:05;;;;;;;6.22;4.90;;;21.80;99.90;;;;;;5110110;27;20603;-79
2022/08/02 01:22:23;;;;;;;10.10;5.20;;;21.80;99.90;;;;;;5110768;27;20225;-78
2022/08/02 01:25:56;;;;;;;10.07;5.20;;;21.80;99.90;;;;;;5094083;27;20222;-79
2022/08/02 01:28:52;;;;;;;8.13;5.20;;;21.70;99.90;;;;;;5106074;27;20218;-80
2022/08/02 01:31:46;;;;;;;10.32;5.00;;;21.70;99.90;;;;;;5096369;28;20726;-79
2022/08/02 01:34:39;;;;;;;9.38;5.32;;;21.60;99.90;;;;;;5093655;28;20219;-79
2022/08/02 01:37:32;;;;;;;8.13;5.70;;;21.60;99.90;;;;;;5102161;27;20229;-78
2022/08/02 01:40:25;;;;;;;9.50;5.50;;;21.60;99.90;;;;;;5101561;28;20216;-78
2022/08/02 01:43:15;;;;;;;6.90;5.70;;;21.70;99.90;;;;;;5097220;28;20237;-77
2022/08/02 01:46:05;;;;;;;9.80;5.10;;;21.70;99.90;;;;;;5096335;28;20223;-76
2022/08/02 01:48:57;;;;;;;9.02;5.10;;;21.60;99.90;;;;;;5106642;27;20219;-77
2022/08/02 01:55:00;;;;;;;8.45;5.10;;;21.60;99.90;;;;;;5103544;27;20235;-78
2022/08/02 01:57:53;;;;;;;8.75;5.50;;;21.60;99.90;;;;;;5106044;28;20360;-79
2022/08/02 02:00:44;;;;;;;12.07;5.28;;;21.50;99.90;;;;;;5106869;27;20235;-78
2022/08/02 02:03:35;;;;;;;7.75;5.32;;;21.50;99.90;;;;;;5099053;27;20215;-76
2022/08/02 02:06:29;;;;;;;5.60;5.07;;;21.50;99.90;;;;;;5099670;27;20237;-76
2022/08/02 02:09:20;;;;;;;10.20;5.47;;;21.50;99.90;;;;;;5099179;27;20247;-78
2022/08/02 02:12:12;;;;;;;10.43;5.40;;;21.40;99.90;;;;;;5098169;27;20214;-77
2022/08/02 02:15:03;;;;;;;10.88;5.97;;;21.40;99.90;;;;;;5095315;27;20222;-76
2022/08/02 02:17:54;;;;;;;7.35;5.22;;;21.30;99.90;;;;;;5125075;27;20255;-78
2022/08/02 02:21:02;;;;;;;6.53;5.40;;;21.30;99.90;;;;;;5114377;27;20372;-78
2022/08/02 02:23:50;;;;;;;7.40;5.72;;;21.30;99.90;;;;;;5097482;27;20584;-78
2022/08/02 02:26:41;;;;;;;9.63;5.60;;;21.30;99.90;;;;;;5101597;27;20223;-75
2022/08/02 02:29:47;;;;;;;14.73;12.68;;;21.30;99.90;;;;;;5110028;27;20260;-77
2022/08/02 02:32:36;;;;;;;7.07;5.40;;;21.20;99.90;;;;;;5098994;27;20313;-76
2022/08/02 02:35:29;;;;;;;10.25;5.93;;;21.10;99.90;;;;;;5103085;27;20218;-78
2022/08/02 02:38:20;;;;;;;6.50;5.68;;;21.10;99.90;;;;;;5116193;27;20221;-78
2022/08/02 02:41:12;;;;;;;7.68;6.30;;;21.20;99.90;;;;;;5103073;27;20238;-77
2022/08/02 02:44:03;;;;;;;7.82;6.07;;;21.10;99.90;;;;;;5097593;27;20238;-77
2022/08/02 02:46:54;;;;;;;8.27;6.32;;;21.10;99.90;;;;;;5095726;27;20208;-79
2022/08/02 02:49:44;;;;;;;9.60;6.43;;;21.20;99.90;;;;;;5101232;27;20226;-77
2022/08/02 02:52:34;;;;;;;8.68;5.90;;;21.20;99.90;;;;;;5096401;27;20218;-77
2022/08/02 02:55:25;;;;;;;7.82;6.10;;;21.20;99.90;;;;;;5111763;27;21093;-76
2022/08/02 02:58:14;;;;;;;11.90;6.45;;;21.20;99.90;;;;;;5097382;27;20211;-76
2022/08/02 03:04:29;;;;;;;8.80;5.97;;;21.20;99.90;;;;;;5098168;27;20216;-76
2022/08/02 03:07:38;;;;;;;11.52;6.32;;;21.20;99.90;;;;;;5095144;27;20230;-78
2022/08/02 03:10:28;;;;;;;9.60;6.25;;;21.20;99.90;;;;;;5095933;27;20682;-79
2022/08/02 03:13:18;;;;;;;7.60;6.00;;;21.20;99.90;;;;;;5106221;27;20219;-79
2022/08/02 03:16:07;;;;;;;9.65;6.40;;;21.20;99.90;;;;;;5125576;27;20215;-79
2022/08/02 03:18:57;;;;;;;12.23;6.75;;;21.10;99.90;;;;;;5099410;27;20215;-79
2022/08/02 03:21:48;;;;;;;8.50;6.38;;;21.10;99.90;;;;;;5093161;27;20291;-79
2022/08/02 03:24:44;;;;;;;10.82;6.88;;;21.10;99.90;;;;;;5110929;27;20235;-79
2022/08/02 03:27:35;;;;;;;7.45;6.65;;;21.00;99.90;;;;;;5110453;27;20231;-78
2022/08/02 03:30:26;;;;;;;10.98;7.03;;;20.90;99.90;;;;;;5097478;27;20695;-78
2022/08/02 03:33:15;;;;;;;13.80;7.47;;;20.90;99.90;;;;;;5099204;27;20618;-77
2022/08/02 03:36:07;;;;;;;9.85;7.30;;;21.00;99.90;;;;;;5095676;27;20584;-77
2022/08/02 03:38:57;;;;;;;10.60;7.68;;;21.10;99.90;;;;;;5093943;27;20267;-76
2022/08/02 03:41:48;;;;;;;12.88;7.80;;;21.00;99.90;;;;;;5104765;27;20318;-77
2022/08/02 03:44:39;;;;;;;10.55;7.68;;;20.90;99.90;;;;;;5097233;27;20295;-77
2022/08/02 03:47:28;;;;;;;10.80;8.10;;;21.00;99.90;;;;;;5101258;27;20215;-77
2022/08/02 03:50:18;;;;;;;10.55;7.45;;;20.90;99.90;;;;;;5097636;27;21173;-77
2022/08/02 03:53:07;;;;;;;8.40;7.50;;;20.90;99.90;;;;;;5112493;27;20761;-77
2022/08/02 03:56:07;;;;;;;9.40;7.07;;;20.90;99.90;;;;;;5100017;27;20227;-78
2022/08/02 03:59:06;;;;;;;7.88;7.03;;;20.90;99.90;;;;;;5094860;27;20230;-76
2022/08/02 04:01:57;;;;;;;9.68;7.43;;;21.00;99.90;;;;;;5098344;28;20218;-76
2022/08/02 04:04:49;;;;;;;9.00;7.55;;;20.90;99.90;;;;;;5101823;27;20223;-78
2022/08/02 04:07:38;;;;;;;10.05;7.18;;;21.00;99.90;;;;;;5099962;27;20237;-78
2022/08/02 04:13:53;;;;;;;8.73;7.82;;;21.10;99.90;;;;;;5096599;27;20911;-77
2022/08/02 04:16:48;;;;;;;10.88;7.65;;;21.10;99.90;;;;;;5126840;27;20602;-79
2022/08/02 04:19:43;;;;;;;9.32;7.47;;;21.20;99.90;;;;;;5097499;27;20218;-78
2022/08/02 04:22:37;;;;;;;12.18;8.25;;;21.30;99.90;;;;;;5100286;27;20222;-78
2022/08/02 04:25:27;;;;;;;12.57;7.97;;;21.10;99.90;;;;;;5098192;27;21073;-78
2022/08/02 04:28:28;;;;;;;8.50;7.68;;;21.10;99.90;;;;;;5096733;27;20221;-79
2022/08/02 04:31:18;;;;;;;10.43;7.75;;;21.00;99.90;;;;;;5103286;27;20706;-77
2022/08/02 04:34:07;;;;;;;9.35;7.72;;;21.00;99.90;;;;;;5097686;27;20565;-78
2022/08/02 04:36:58;;;;;;;11.38;8.02;;;21.10;99.90;;;;;;5095538;27;20231;-78
2022/08/02 04:39:47;;;;;;;9.52;7.80;;;21.10;99.90;;;;;;5110917;27;20743;-78
2022/08/02 04:42:35;;;;;;;9.05;7.57;;;21.30;99.90;;;;;;5098425;27;20207;-78
2022/08/02 04:45:25;;;;;;;11.20;7.97;;;21.30;99.90;;;;;;5098651;27;20684;-79
2022/08/02 04:48:14;;;;;;;13.75;8.50;;;21.20;99.90;;;;;;5095223;27;20226;-78
2022/08/02 04:51:02;;;;;;;11.32;8.63;;;21.20;99.90;;;;;;5093154;28;20241;-77
2022/08/02 04:53:52;;;;;;;9.73;8.55;;;21.30;99.90;;;;;;5096620;27;20264;-78
2022/08/02 04:56:53;;;;;;;11.27;7.90;;;21.30;99.90;;;;;;5090788;27;20725;-78
2022/08/02 04:59:42;;;;;;;8.93;7.95;;;21.30;99.90;;;;;;5093447;27;20230;-78
2022/08/02 05:02:31;;;;;;;13.52;8.68;;;21.20;99.90;;;;;;5095540;27;20226;-78
2022/08/02 05:05:20;;;;;;;10.38;8.13;;;21.10;99.90;;;;;;5098112;27;20226;-78
2022/08/02 05:08:08;;;;;;;11.98;8.18;;;21.10;99.90;;;;;;5101578;27;20218;-78
2022/08/02 05:11:02;;;;;;;11.48;8.63;;;21.10;99.90;;;;;;5101936;27;20254;-78
2022/08/02 05:13:51;;;;;;;12.75;8.25;;;21.00;99.90;;;;;;5091848;27;20244;-78
2022/08/02 05:16:46;;;;;;;9.45;8.10;;;21.10;99.90;;;;;;5113456;27;20222;-78
2022/08/02 05:19:35;;;;;;;10.90;8.07;;;21.30;99.90;;;;;;5109421;27;20223;-77
2022/08/02 05:22:24;;;;;;;11.50;8.02;;;21.40;99.90;;;;;;5099430;27;20296;-80
2022/08/02 05:25:13;;;;;;;9.95;8.20;;;21.60;99.90;;;;;;5090366;28;20231;-78
2022/08/02 05:28:03;;;;;;;12.60;8.25;;;21.60;99.90;;;;;;5108675;27;20223;-77
2022/08/02 05:31:01;;;;;;;9.68;7.53;;;21.80;99.90;;;;;;5096467;28;20230;-77
2022/08/02 05:33:50;;;;;;;10.38;7.40;;;21.70;99.90;;;;;;5097571;28;20226;-78
2022/08/02 05:36:38;;;;;;;8.23;6.82;;;21.80;99.90;;;;;;5097061;28;20226;-79
2022/08/02 05:39:30;;;;;;;9.23;7.38;;;22.00;99.90;;;;;;5097030;28;20226;-82
2022/08/02 05:42:19;;;;;;;9.57;6.63;;;22.00;99.90;;;;;;5126056;27;20219;-82
2022/08/02 05:45:10;;;;;;;8.60;6.97;;;22.10;99.90;;;;;;5103109;27;20300;-87
2022/08/02 05:48:00;;;;;;;8.20;7.10;;;22.30;99.90;;;;;;5099309;28;20246;-82
2022/08/02 05:51:07;;;;;;;8.93;7.38;;;22.30;99.90;;;;;;5114014;27;20257;-83
2022/08/02 05:54:06;;;;;;;10.98;6.75;;;22.40;99.90;;;;;;5102234;28;20215;-82
2022/08/02 05:57:00;;;;;;;9.75;7.30;;;22.60;99.90;;;;;;5110300;27;20279;-84
2022/08/02 06:00:01;;;;;;;7.63;6.70;;;22.80;99.90;;;;;;5106330;28;20230;-91
2022/08/02 06:03:18;;;;;;;9.05;6.63;;;23.40;99.90;;;;;;5104736;28;20214;-81
2022/08/02 06:06:12;;;;;;;9.45;6.45;;;23.90;99.90;;;;;;5096541;28;20742;-83
2022/08/02 06:09:02;;;;;;;7.32;6.22;;;23.80;99.90;;;;;;5100721;28;20591;-84
2022/08/02 06:11:53;;;;;;;7.03;6.30;;;24.20;99.90;;;;;;5100162;27;20306;-81
2022/08/02 06:14:51;;;;;;;9.27;5.85;;;26.20;99.90;;;;;;5122710;27;20254;-83
2022/08/02 06:17:42;;;;;;;9.20;6.05;;;25.50;99.90;;;;;;5096388;28;20222;-83
2022/08/02 06:20:35;;;;;;;10.48;5.65;;;24.40;99.90;;;;;;5107596;27;20227;-83
2022/08/02 06:23:26;;;;;;;9.65;5.60;;;24.20;99.90;;;;;;5102441;28;20216;-82
2022/08/02 06:26:16;;;;;;;6.80;5.28;;;23.90;99.90;;;;;;5120991;27;20709;-83
2022/08/02 06:29:05;;;;;;;7.53;5.55;;;23.70;99.90;;;;;;5116412;27;20223;-82
2022/08/02 06:31:54;;;;;;;7.57;5.13;;;23.60;99.90;;;;;;5105158;27;20224;-84
2022/08/02 06:34:43;;;;;;;9.75;4.68;;;23.70;99.90;;;;;;5095849;28;20364;-85
2022/08/02 06:37:41;;;;;;;7.00;4.75;;;23.70;99.90;;;;;;5093827;28;20222;-85
2022/08/02 06:40:32;;;;;;;9.40;5.45;;;23.80;99.90;;;;;;5112556;27;20270;-85
2022/08/02 06:43:28;;;;;;;7.40;4.85;;;23.80;99.90;;;;;;5096975;28;20230;-86
2022/08/02 06:46:17;;;;;;;7.00;4.47;;;23.80;99.90;;;;;;5113487;27;20298;-85
2022/08/02 06:49:26;;;;;;;4.57;4.13;;;23.90;99.90;;;;;;5097807;27;20249;-85
2022/08/02 06:52:36;;;;;;;6.90;4.10;;;23.80;99.90;;;;;;5098120;27;20221;-85
2022/08/02 06:55:26;;;;;;;5.07;4.03;;;23.80;99.90;;;;;;5100076;28;20776;-86
2022/08/02 06:58:15;;;;;;;6.13;3.97;;;24.00;99.90;;;;;;5110186;27;20708;-87
2022/08/02 07:01:06;;;;;;;5.47;3.45;;;24.10;99.90;;;;;;5119332;27;20226;-86
2022/08/02 07:03:55;;;;;;;4.95;3.50;;;24.20;99.90;;;;;;5101075;27;20383;-86
2022/08/02 07:06:44;;;;;;;3.92;2.90;;;24.10;99.90;;;;;;5114409;27;20215;-87
2022/08/02 07:09:34;;;;;;;5.95;3.30;;;24.30;99.90;;;;;;5095894;27;20226;-86
2022/08/02 07:12:22;;;;;;;6.13;2.83;;;24.40;99.90;;;;;;5099504;27;20226;-86
2022/08/02 07:15:12;;;;;;;4.60;2.83;;;24.80;99.90;;;;;;5098892;28;20238;-86
2022/08/02 07:18:01;;;;;;;6.30;2.95;;;25.00;99.90;;;;;;5105176;27;20227;-87
2022/08/02 07:20:50;;;;;;;6.78;2.90;;;25.00;99.90;;;;;;5131963;27;20215;-87
2022/08/02 07:23:39;;;;;;;4.95;2.72;;;25.00;99.90;;;;;;5103116;27;20722;-88
2022/08/02 07:26:29;;;;;;;12.15;3.42;;;25.10;99.90;;;;;;5094161;27;20274;-84
2022/08/02 07:29:18;;;;;;;4.75;2.47;;;25.20;99.90;;;;;;5107518;28;20223;-86
2022/08/02 07:32:07;;;;;;;3.45;2.30;;;25.10;99.90;;;;;;5103756;27;20310;-87
2022/08/02 07:34:57;;;;;;;7.22;2.97;;;25.40;99.90;;;;;;5114748;27;20284;-88
2022/08/02 07:37:47;;;;;;;6.43;2.90;;;25.80;99.90;;;;;;5106852;27;20238;-88
2022/08/02 07:40:45;;;;;;;3.80;2.28;;;26.20;99.90;;;;;;5115392;27;20231;-87
2022/08/02 07:43:35;;;;;;;5.57;2.70;;;26.30;99.90;;;;;;5101325;27;20305;-87
2022/08/02 07:46:24;;;;;;;3.20;2.50;;;26.70;99.90;;;;;;5100916;27;20306;-87
2022/08/02 07:49:17;;;;;;;5.93;2.67;;;27.00;99.90;;;;;;5101876;28;20565;-88
2022/08/02 07:52:06;;;;;;;6.47;2.50;;;26.80;99.90;;;;;;5115239;27;21038;-84
2022/08/02 07:54:55;;;;;;;5.00;2.70;;;26.80;99.90;;;;;;5109331;27;20226;-88
2022/08/02 07:57:45;;;;;;;3.53;2.60;;;26.70;99.90;;;;;;5117964;27;20215;-88
2022/08/02 08:00:35;;;;;;;5.03;2.25;;;26.80;98.20;;;;;;5115562;27;20282;-88
2022/08/02 08:03:24;;;;;;;4.20;2.88;;;26.70;97.50;;;;;;5114576;28;20211;-87
2022/08/02 08:06:13;;;;;;;3.35;2.33;;;26.80;99.10;;;;;;5124004;28;20229;-86
2022/08/02 08:09:04;;;;;;;4.85;2.78;;;27.60;99.00;;;;;;5145662;27;20258;-84
2022/08/02 08:11:52;;;;;;;5.22;2.55;;;27.60;96.60;;;;;;5110333;27;20229;-88
2022/08/02 08:14:41;;;;;;;3.80;2.50;;;28.30;94.60;;;;;;5122298;27;20223;-85
2022/08/02 08:17:31;;;;;;;6.15;2.55;;;28.70;93.00;;;;;;5103939;28;21107;-87
2022/08/02 08:20:20;;;;;;;11.43;4.05;;;28.00;93.00;;;;;;5102224;27;20218;-86
2022/08/02 08:23:10;;;;;;;7.30;3.20;;;27.90;92.70;;;;;;5116981;27;20230;-88
2022/08/02 08:25:59;;;;;;;4.97;2.53;;;28.40;93.50;;;;;;5115965;27;20324;-87
2022/08/02 08:28:48;;;;;;;7.03;3.90;;;28.60;93.00;;;;;;5097744;28;20218;-88
2022/08/02 08:31:37;;;;;;;4.38;2.63;;;29.20;92.50;;;;;;5097933;27;21370;-88
2022/08/02 08:34:30;;;;;;;7.05;2.80;;;29.30;87.70;;;;;;5100848;27;20313;-87
2022/08/02 08:37:18;;;;;;;5.60;2.70;;;29.50;90.30;;;;;;5103113;27;20226;-88
2022/08/02 08:40:09;;;;;;;3.33;2.70;;;29.90;85.10;;;;;;5098769;28;21800;-88
2022/08/02 08:42:57;;;;;;;4.85;2.70;;;30.20;85.00;;;;;;5105223;27;20225;-88
2022/08/02 08:45:48;;;;;;;7.72;2.50;;;30.40;84.20;;;;;;5098642;28;20243;-88
2022/08/02 08:48:48;;;;;;;23.27;4.53;;;30.30;82.50;;;;;;5113536;27;20227;-88
2022/08/02 08:51:42;;;;;;;7.57;3.08;;;30.60;85.00;;;;;;5101997;27;20226;-88
2022/08/02 08:54:32;;;;;;;4.38;2.90;;;31.00;81.40;;;;;;5095189;27;20648;-87
2022/08/02 08:57:21;;;;;;;4.30;2.45;;;31.30;77.40;;;;;;5099701;27;20214;-88
2022/08/02 09:00:12;;;;;;;20.58;4.85;;;31.40;78.10;;;;;;5101049;27;20726;-88
2022/08/02 09:03:03;;;;;;;6.20;2.80;;;31.60;77.90;;;;;;5102415;27;20306;-87
2022/08/02 09:05:51;;;;;;;3.17;2.80;;;31.70;77.70;;;;;;5101971;28;20213;-88
2022/08/02 09:08:41;;;;;;;8.60;2.92;;;32.00;73.60;;;;;;5103966;27;20225;-88
2022/08/02 09:11:30;;;;;;;6.63;3.28;;;31.10;72.40;;;;;;5103261;27;20300;-89
2022/08/02 09:14:31;;;;;;;10.10;3.58;;;31.10;73.90;;;;;;5103729;27;20218;-87
2022/08/02 09:17:20;;;;;;;3.22;2.60;;;31.40;75.50;;;;;;5100823;28;20226;-88
2022/08/02 09:20:10;;;;;;;7.18;3.33;;;31.70;70.90;;;;;;5114966;27;20233;-87
2022/08/02 09:23:09;;;;;;;7.10;3.10;;;32.10;73.50;;;;;;5092912;27;20218;-87
2022/08/02 09:26:01;;;;;;;5.70;2.70;;;32.40;73.40;;;;;;5093776;27;20206;-87
2022/08/02 09:29:01;;;;;;;38.50;6.10;;;32.50;71.00;;;;;;5097134;27;20690;-87
2022/08/02 09:31:51;;;;;;;6.50;2.90;;;32.70;69.70;;;;;;5101903;27;20226;-87
2022/08/02 09:34:50;;;;;;;8.32;3.38;;;33.10;68.00;;;;;;5106047;27;20214;-86
2022/08/02 09:37:38;;;;;;;7.82;3.42;;;33.40;68.70;;;;;;5129303;27;20370;-87
2022/08/02 09:40:36;;;;;;;6.45;3.28;;;33.80;66.10;;;;;;5086200;28;20365;-86
2022/08/02 09:43:41;;;;;;;3.17;2.80;;;34.40;66.60;;;;;;5098572;28;20710;-87
2022/08/02 09:46:50;;;;;;;5.60;3.30;;;34.90;63.00;;;;;;5090374;28;20702;-86
2022/08/02 09:49:46;;;;;;;4.45;2.83;;;34.90;64.00;;;;;;5095750;28;20222;-87
2022/08/02 09:52:43;;;;;;;5.85;3.00;;;35.00;63.10;;;;;;5100556;28;20249;-81
2022/08/02 09:55:32;;;;;;;6.28;3.00;;;34.90;61.40;;;;;;5113263;27;20237;-90
2022/08/02 09:58:21;;;;;;;6.68;2.80;;;35.80;60.00;;;;;;5103970;28;20210;-90
2022/08/02 10:01:11;;;;;;;5.18;2.80;;;36.50;60.00;;;;;;5098427;28;20306;-90
2022/08/02 10:04:04;;;;;;;3.17;2.88;;;35.80;57.30;;;;;;5110103;28;20225;-90
2022/08/02 10:06:54;;;;;;;8.00;3.33;;;34.40;60.40;;;;;;5117314;27;20664;-91
2022/08/02 10:09:44;;;;;;;5.38;3.50;;;33.60;64.80;;;;;;5109024;28;20233;-92
2022/08/02 10:12:36;;;;;;;4.55;3.15;;;32.20;66.40;;;;;;5102372;28;20222;-93
2022/08/02 10:15:25;;;;;;;3.65;3.00;;;31.20;66.10;;;;;;5110147;27;20213;-91
2022/08/02 10:18:16;;;;;;;6.65;3.47;;;30.50;71.40;;;;;;5110537;27;20214;-91
2022/08/02 10:21:29;;;;;;;5.43;3.78;;;30.10;71.40;;;;;;5128058;27;20690;-89
2022/08/02 10:24:24;;;;;;;4.43;3.53;;;29.80;70.50;;;;;;5111108;27;20234;-89
2022/08/02 10:27:16;;;;;;;6.20;3.70;;;29.20;72.50;;;;;;5102999;27;20227;-90
2022/08/02 10:30:07;;;;;;;6.40;3.38;;;29.90;72.30;;;;;;5104843;27;20585;-91
2022/08/02 10:32:59;;;;;;;6.85;3.38;;;33.30;69.40;;;;;;5113122;27;20222;-92
2022/08/02 10:35:52;;;;;;;6.88;3.58;;;33.90;64.10;;;;;;5105110;28;20218;-91
2022/08/02 10:38:57;;;;;;;7.88;3.20;;;35.10;61.20;;;;;;5110574;28;20674;-90
2022/08/02 10:41:49;;;;;;;4.70;3.10;;;35.50;62.80;;;;;;5110506;27;20275;-91
2022/08/02 10:44:38;;;;;;;5.13;3.38;;;33.30;64.00;;;;;;5101528;27;20223;-91
2022/08/02 10:47:30;;;;;;;8.70;3.30;;;34.90;64.30;;;;;;5108877;28;21026;-88
2022/08/02 10:50:19;;;;;;;5.97;3.25;;;36.80;59.30;;;;;;5106136;27;20276;-91
2022/08/02 10:53:27;;;;;;;4.45;3.08;;;34.80;57.70;;;;;;5097062;27;20234;-86
2022/08/02 10:56:17;;;;;;;3.75;3.10;;;33.30;60.80;;;;;;5128201;27;20235;-87
2022/08/02 10:59:26;;;;;;;10.02;3.10;;;32.20;64.60;;;;;;5103015;27;20696;-86
2022/08/02 11:02:34;;;;;;;6.90;3.65;;;31.60;65.80;;;;;;5124205;27;20621;-87
2022/08/02 11:05:30;;;;;;;10.07;5.60;;;33.40;63.90;;;;;;5101601;28;20226;-86
2022/08/02 11:08:33;;;;;;;5.45;3.70;;;32.20;67.40;;;;;;5118818;27;20219;-91
2022/08/02 11:11:22;;;;;;;5.82;3.38;;;34.70;66.10;;;;;;5120564;27;20223;-94
2022/08/02 11:14:32;;;;;;;4.75;2.95;;;36.90;60.10;;;;;;5101782;27;20226;-85
2022/08/02 11:17:21;;;;;;;6.20;3.35;;;38.30;57.90;;;;;;5102545;27;20245;-87
2022/08/02 11:20:17;;;;;;;4.38;3.35;;;39.00;55.60;;;;;;5096845;28;20727;-87
2022/08/02 11:23:36;;;;;;;5.35;3.10;;;39.50;52.70;;;;;;5102813;28;20218;-88
2022/08/02 11:26:44;;;;;;;12.43;3.80;;;37.80;53.70;;;;;;5103742;28;20229;-87
2022/08/02 11:29:38;;;;;;;6.57;3.53;;;34.90;57.20;;;;;;5101601;28;20733;-87
2022/08/02 11:32:27;;;;;;;16.40;4.35;;;33.30;61.60;;;;;;5126666;27;20293;-87
2022/08/02 11:35:18;;;;;;;15.90;4.65;;;32.50;65.40;;;;;;5106974;27;20218;-86
2022/08/02 11:38:18;;;;;;;10.45;3.50;;;31.90;67.10;;;;;;5114943;27;20298;-87
2022/08/02 11:41:09;;;;;;;11.23;4.60;;;33.30;64.10;;;;;;5112434;27;20736;-86
2022/08/02 11:43:58;;;;;;;4.80;3.65;;;31.70;64.90;;;;;;5106975;28;20222;-88
2022/08/02 11:46:54;;;;;;;8.07;3.90;;;31.00;66.10;;;;;;5115732;27;20229;-86
2022/08/02 11:49:43;;;;;;;10.65;4.10;;;30.20;69.80;;;;;;5109018;27;20222;-86
2022/08/02 11:52:34;;;;;;;8.98;4.22;;;30.60;71.80;;;;;;5103694;28;20211;-86
2022/08/02 11:55:27;;;;;;;11.00;4.63;;;30.30;73.30;;;;;;5104292;28;20218;-85
2022/08/02 11:58:17;;;;;;;10.25;4.57;;;29.80;72.80;;;;;;5099082;28;20718;-88
2022/08/02 12:01:07;;;;;;;7.93;4.00;;;29.90;74.40;;;;;;5094991;28;20251;-86
2022/08/02 12:03:59;;;;;;;10.07;4.35;;;29.80;74.30;;;;;;5113889;27;20230;-86
2022/08/02 12:06:56;;;;;;;9.00;4.35;;;29.70;73.80;;;;;;5093386;27;20234;-86
2022/08/02 12:09:45;;;;;;;6.88;4.63;;;29.60;76.40;;;;;;5097822;28;20293;-85
2022/08/02 12:12:33;;;;;;;8.00;4.75;;;29.50;76.40;;;;;;5095980;28;20583;-87
2022/08/02 12:15:36;;;;;;;11.32;4.88;;;29.80;77.40;;;;;;5095226;27;20693;-86
2022/08/02 12:21:30;;;;;;;9.43;5.90;;;30.10;76.90;;;;;;5068515;28;20306;-86
2022/08/02 12:24:28;;;;;;;8.73;4.70;;;30.70;75.60;;;;;;5101436;28;20223;-88
2022/08/02 12:27:32;;;;;;;7.22;4.68;;;30.70;73.20;;;;;;5104518;27;20227;-86
2022/08/02 12:30:23;;;;;;;10.32;4.57;;;30.70;73.70;;;;;;5124315;27;20218;-86
2022/08/02 12:33:16;;;;;;;7.57;4.88;;;30.60;74.60;;;;;;5112715;27;20222;-87
2022/08/02 12:36:15;;;;;;;7.57;4.78;;;32.80;73.00;;;;;;5112526;27;20301;-88
2022/08/02 12:39:04;;;;;;;8.80;4.80;;;;;;;;;;5095474;28;20586;-87
2022/08/02 12:41:57;;;;;;;6.10;4.18;;;37.80;59.70;;;;;;5101091;28;20230;-87
2022/08/02 12:44:51;;;;;;;6.85;4.07;;;34.00;61.60;;;;;;5097135;27;20352;-86
2022/08/02 12:47:47;;;;;;;7.40;4.20;;;32.00;65.70;;;;;;5096131;27;20215;-85
2022/08/02 12:50:38;;;;;;;5.05;4.13;;;31.40;69.90;;;;;;5098865;27;20214;-86
2022/08/02 12:53:33;;;;;;;4.35;3.70;;;30.30;70.80;;;;;;5112990;27;20271;-86
2022/08/02 12:56:30;;;;;;;7.82;4.35;;;29.80;73.70;;;;;;5094100;28;20297;-83
2022/08/02 12:59:34;;;;;;;6.97;4.47;;;29.70;73.10;;;;;;5104624;27;20222;-90
2022/08/02 13:02:26;;;;;;;8.05;4.00;;;29.20;73.50;;;;;;5101205;27;20218;-88
2022/08/02 13:05:16;;;;;;;5.40;4.55;;;29.40;74.60;;;;;;5102953;27;20777;-90
2022/08/02 13:08:06;;;;;;;9.73;5.30;;;29.60;75.80;;;;;;5103955;28;20231;-91
2022/08/02 13:10:55;;;;;;;10.30;4.60;;;29.40;75.80;;;;;;5098432;27;20229;-87
2022/08/02 13:13:44;;;;;;;10.80;4.60;;;28.40;74.50;;;;;;5094968;27;20356;-84
2022/08/02 13:16:34;;;;;;;5.90;3.97;;;28.20;76.00;;;;;;5099700;27;20237;-84
2022/08/02 13:19:23;;;;;;;5.65;3.97;;;28.40;76.30;;;;;;5114534;27;20789;-86
2022/08/02 13:22:12;;;;;;;9.15;4.40;;;28.50;78.00;;;;;;5111802;27;20311;-83
2022/08/02 13:25:04;;;;;;;10.30;4.35;;;28.40;77.00;;;;;;5099622;28;20229;-85
2022/08/02 13:27:53;;;;;;;8.88;4.38;;;28.20;75.70;;;;;;5095893;28;20341;-87
2022/08/02 13:30:42;;;;;;;9.18;4.68;;;28.10;76.60;;;;;;5096584;27;20233;-85
2022/08/02 13:33:31;;;;;;;12.07;4.45;;;28.30;78.80;;;;;;5092430;28;20218;-84
2022/08/02 13:36:19;;;;;;;8.23;4.50;;;28.30;76.80;;;;;;5102088;28;20382;-87
2022/08/02 13:39:10;;;;;;;8.45;4.40;;;28.60;79.00;;;;;;5103443;27;20213;-88
2022/08/02 13:42:01;;;;;;;7.55;4.35;;;28.80;78.80;;;;;;5099624;28;20234;-90
2022/08/02 13:44:50;;;;;;;7.72;3.97;;;28.90;79.70;;;;;;5124742;27;20230;-86
2022/08/02 13:47:39;;;;;;;7.88;4.50;;;28.90;81.00;;;;;;5106495;28;20272;-88
2022/08/02 13:50:48;;;;;;;8.20;4.40;;;28.90;79.40;;;;;;5101666;28;20223;-88
2022/08/02 13:53:37;;;;;;;7.22;3.83;;;28.80;80.30;;;;;;5102933;28;20229;-88
2022/08/02 13:56:26;;;;;;;9.23;4.03;;;28.80;79.00;;;;;;5117415;27;20218;-85
2022/08/02 13:59:25;;;;;;;4.70;4.30;;;28.70;79.00;;;;;;5102587;27;20214;-86
2022/08/02 14:02:34;;;;;;;13.02;4.97;;;28.60;81.40;;;;;;5110198;27;20225;-86
2022/08/02 14:05:30;;;;;;;12.40;5.88;;;28.50;81.40;;;;;;5098017;27;20316;-86
2022/08/02 14:08:36;;;;;;;3.85;3.47;;;28.40;82.20;;;;;;5095765;28;20223;-86
2022/08/02 14:11:25;;;;;;;4.47;3.58;;;28.30;80.30;;;;;;5110165;27;20825;-85
2022/08/02 14:14:14;;;;;;;6.25;4.60;;;28.30;81.10;;;;;;5099505;27;20266;-84
2022/08/02 14:17:06;;;;;;;35.95;7.60;;;28.30;82.40;;;;;;5102081;28;20219;-90
2022/08/02 14:19:55;;;;;;;9.18;4.18;;;28.30;84.60;;;;;;5114865;28;20237;-89
2022/08/02 14:22:44;;;;;;;16.45;5.43;;;28.30;80.70;;;;;;5101696;28;20238;-88
2022/08/02 14:25:33;;;;;;;9.10;4.20;;;28.30;80.30;;;;;;5103300;28;20879;-89
2022/08/02 14:28:21;;;;;;;5.25;3.65;;;28.20;79.60;;;;;;5102555;28;20297;-89
2022/08/02 14:31:13;;;;;;;4.88;3.70;;;28.00;80.10;;;;;;5105506;28;21191;-90
2022/08/02 14:34:03;;;;;;;5.80;3.60;;;28.00;81.40;;;;;;5101135;28;20230;-87
2022/08/02 14:36:52;;;;;;;7.28;4.05;;;27.80;80.90;;;;;;5124979;27;20363;-89
2022/08/02 14:39:41;;;;;;;7.10;3.58;;;27.80;80.80;;;;;;5103053;28;20249;-88
2022/08/02 14:42:48;;;;;;;9.60;4.68;;;27.70;82.10;;;;;;5084404;28;20210;-89
2022/08/02 14:45:36;;;;;;;9.75;3.58;;;27.80;84.60;;;;;;5141897;27;20215;-89
2022/08/02 14:48:28;;;;;;;9.15;4.07;;;27.80;83.00;;;;;;5102155;28;20733;-86
2022/08/02 14:51:19;;;;;;;8.63;3.70;;;27.80;82.10;;;;;;5094257;28;20227;-87
2022/08/02 14:54:09;;;;;;;19.15;4.72;;;27.80;82.60;;;;;;5109568;27;20692;-82
2022/08/02 14:57:01;;;;;;;11.85;5.78;;;27.80;81.80;;;;;;5110483;27;20310;-83
2022/08/02 14:59:50;;;;;;;9.82;4.32;;;27.80;83.90;;;;;;5100126;27;20291;-85
2022/08/02 15:02:40;;;;;;;11.98;4.20;;;27.90;84.50;;;;;;5113215;27;20221;-85
2022/08/02 15:05:29;;;;;;;6.57;3.47;;;27.90;81.50;;;;;;5100373;28;20723;-85
2022/08/02 15:08:19;;;;;;;9.07;4.18;;;27.80;81.20;;;;;;5102702;27;20641;-85
2022/08/02 15:11:08;;;;;;;5.95;4.20;;;27.80;80.90;;;;;;5100860;27;20223;-84